Time;durP1;ratioP1;P1;durP2;ratioP2;P2;SDS_P1;SDS_P2;PMS_P1;PMS_P2;Temp;Humidity;BMP_temperature;BMP_pressure;BME280_temperature;BME280_humidity;BME280_pressure;Samples;Min_cycle;Max_cycle;Signal;HPM_P1;HPM_P2
2020/12/06 00:00:21;;;;;;;35.13;32.13;;;5.20;96.00;;;;;;5013875;28;20206;-77
2020/12/06 00:02:47;;;;;;;36.83;33.45;;;5.20;95.60;;;;;;5014547;28;20562;-77
2020/12/06 00:05:14;;;;;;;34.55;31.35;;;5.20;95.40;;;;;;5013699;28;20314;-77
2020/12/06 00:07:40;;;;;;;35.83;32.45;;;5.30;95.40;;;;;;5014032;28;20750;-77
2020/12/06 00:10:08;;;;;;;34.13;31.13;;;5.40;95.20;;;;;;5013714;28;20205;-77
2020/12/06 00:12:35;;;;;;;34.95;32.05;;;5.40;94.90;;;;;;5014091;28;20198;-77
2020/12/06 00:15:01;;;;;;;31.60;28.80;;;5.40;94.50;;;;;;5013638;28;20210;-77
2020/12/06 00:17:28;;;;;;;33.20;30.20;;;5.40;94.30;;;;;;5014083;28;20574;-77
2020/12/06 00:19:54;;;;;;;32.72;29.73;;;5.30;95.00;;;;;;5014696;28;20200;-77
2020/12/06 00:22:21;;;;;;;32.85;30.02;;;5.40;95.00;;;;;;5014471;28;20208;-77
2020/12/06 00:24:47;;;;;;;33.20;30.10;;;5.30;94.60;;;;;;5013724;28;20208;-77
2020/12/06 00:27:13;;;;;;;42.90;30.15;;;5.40;94.10;;;;;;5013483;28;20235;-77
2020/12/06 00:29:40;;;;;;;32.70;29.80;;;5.50;93.60;;;;;;5012764;28;20220;-77
2020/12/06 00:32:06;;;;;;;34.13;31.08;;;5.40;93.40;;;;;;5013660;28;20200;-77
2020/12/06 00:34:33;;;;;;;1999.90;503.00;;;5.40;93.60;;;;;;5013859;28;20200;-77
2020/12/06 00:37:00;;;;;;;1902.05;283.40;;;5.40;96.00;;;;;;5013453;28;20262;-77
2020/12/06 00:39:26;;;;;;;33.90;30.40;;;5.30;97.10;;;;;;5012613;28;20211;-76
2020/12/06 00:41:52;;;;;;;34.75;31.35;;;5.40;97.90;;;;;;5013497;28;20196;-77
2020/12/06 00:44:19;;;;;;;34.40;31.20;;;5.40;97.30;;;;;;5013314;28;20295;-77
2020/12/06 00:46:45;;;;;;;33.55;30.65;;;5.40;96.80;;;;;;5012924;28;20224;-77
2020/12/06 00:49:11;;;;;;;1995.85;284.00;;;5.30;96.10;;;;;;5013339;28;20207;-77
2020/12/06 00:51:38;;;;;;;35.60;31.92;;;5.40;96.60;;;;;;5012996;28;20207;-77
2020/12/06 00:54:05;;;;;;;34.15;30.88;;;5.40;97.10;;;;;;5013351;28;20198;-77
2020/12/06 00:56:31;;;;;;;32.50;29.50;;;5.30;95.80;;;;;;5012650;28;20210;-77
2020/12/06 00:58:57;;;;;;;32.17;29.23;;;5.30;95.50;;;;;;5013303;28;20562;-77
2020/12/06 01:01:24;;;;;;;32.13;29.08;;;5.40;95.20;;;;;;5013195;28;20203;-77
2020/12/06 01:03:50;;;;;;;54.88;33.47;;;5.50;94.50;;;;;;5014105;28;20224;-77
2020/12/06 01:06:18;;;;;;;33.60;30.38;;;5.30;94.20;;;;;;5013892;28;20210;-77
2020/12/06 01:08:45;;;;;;;33.95;30.65;;;5.30;94.20;;;;;;5014333;28;20209;-77
2020/12/06 01:11:13;;;;;;;32.70;29.63;;;5.40;93.30;;;;;;5014262;28;20299;-77
2020/12/06 01:13:40;;;;;;;31.25;28.45;;;5.40;92.30;;;;;;5014161;28;20199;-77
2020/12/06 01:16:06;;;;;;;61.28;34.92;;;5.30;92.60;;;;;;5013588;28;20220;-77
2020/12/06 01:18:33;;;;;;;33.13;29.92;;;5.30;92.60;;;;;;5013814;28;20197;-77
2020/12/06 01:20:59;;;;;;;34.70;31.48;;;5.00;93.70;;;;;;5014015;28;20210;-77
2020/12/06 01:23:25;;;;;;;32.72;29.70;;;4.90;95.10;;;;;;5013781;28;20198;-77
2020/12/06 01:25:52;;;;;;;33.83;30.73;;;5.00;94.50;;;;;;5013690;28;20553;-77
2020/12/06 01:28:19;;;;;;;34.15;31.05;;;5.10;93.80;;;;;;5013791;28;20221;-77
2020/12/06 01:30:45;;;;;;;33.55;30.23;;;5.00;93.90;;;;;;5014342;28;20194;-77
2020/12/06 01:33:12;;;;;;;32.50;29.30;;;4.80;95.00;;;;;;5014163;28;20209;-77
2020/12/06 01:35:38;;;;;;;65.65;32.80;;;4.90;95.10;;;;;;5012952;28;20195;-77
2020/12/06 01:38:04;;;;;;;450.02;67.28;;;4.90;95.30;;;;;;5012893;28;20201;-77
2020/12/06 01:40:31;;;;;;;33.75;30.58;;;4.90;95.30;;;;;;5014343;28;20205;-77
2020/12/06 01:42:58;;;;;;;29.85;27.25;;;4.80;94.70;;;;;;5017074;28;20209;-77
2020/12/06 01:45:24;;;;;;;30.70;28.10;;;4.80;94.90;;;;;;5016976;28;20653;-77
2020/12/06 01:47:51;;;;;;;30.23;27.70;;;4.90;94.50;;;;;;5017786;28;20224;-77
2020/12/06 01:50:19;;;;;;;779.17;112.50;;;4.90;94.10;;;;;;5016925;28;20668;-77
2020/12/06 01:52:47;;;;;;;33.20;30.27;;;4.90;95.10;;;;;;5016740;28;20226;-77
2020/12/06 01:55:14;;;;;;;31.80;28.90;;;4.90;95.50;;;;;;5016569;28;20199;-77
2020/12/06 01:57:40;;;;;;;31.50;28.80;;;4.80;94.40;;;;;;5016547;28;20230;-77
2020/12/06 02:00:08;;;;;;;30.67;28.08;;;4.80;94.60;;;;;;5016376;28;20199;-77
2020/12/06 02:02:35;;;;;;;30.67;27.52;;;5.00;94.50;;;;;;5023819;23;20224;-77
2020/12/06 02:05:02;;;;;;;31.30;28.30;;;4.90;94.30;;;;;;4976255;28;20222;-77
2020/12/06 02:07:31;;;;;;;36.50;31.23;;;4.90;94.30;;;;;;4976879;28;20228;-77
2020/12/06 02:09:57;;;;;;;29.48;26.77;;;5.00;94.10;;;;;;4977075;28;20223;-77
2020/12/06 02:12:24;;;;;;;82.22;34.08;;;5.00;93.50;;;;;;4976977;28;20200;-77
2020/12/06 02:14:50;;;;;;;31.80;29.00;;;4.90;93.40;;;;;;4977191;28;20668;-77
2020/12/06 02:17:17;;;;;;;31.25;28.45;;;4.80;93.80;;;;;;4976929;28;20613;-77
2020/12/06 02:19:44;;;;;;;31.77;28.85;;;4.80;94.20;;;;;;4977060;28;20202;-77
2020/12/06 02:22:11;;;;;;;32.05;28.95;;;4.90;94.10;;;;;;4977163;28;20203;-77
2020/12/06 02:24:37;;;;;;;32.95;29.85;;;4.90;93.70;;;;;;4976334;28;20210;-77
2020/12/06 02:27:03;;;;;;;34.20;30.73;;;4.90;93.70;;;;;;4976612;28;20224;-77
2020/12/06 02:29:30;;;;;;;33.67;30.67;;;5.00;93.20;;;;;;4976732;28;20195;-77
2020/12/06 02:31:56;;;;;;;34.22;30.58;;;4.80;93.30;;;;;;4976970;28;20203;-77
2020/12/06 02:34:22;;;;;;;33.17;30.00;;;4.80;94.00;;;;;;4976563;28;20195;-77
2020/12/06 02:36:49;;;;;;;34.47;31.27;;;4.60;94.00;;;;;;4976600;28;20599;-77
2020/12/06 02:39:16;;;;;;;35.38;32.00;;;4.60;93.80;;;;;;4976722;28;20195;-77
2020/12/06 02:41:44;;;;;;;35.95;32.35;;;4.50;94.00;;;;;;4976681;28;20201;-77
2020/12/06 02:44:12;;;;;;;34.40;31.02;;;4.40;94.80;;;;;;4976393;28;20195;-77
2020/12/06 02:46:39;;;;;;;36.00;32.15;;;4.40;95.20;;;;;;4976347;28;20700;-77
2020/12/06 02:49:06;;;;;;;36.08;32.67;;;4.40;95.30;;;;;;4976510;28;20203;-77
2020/12/06 02:51:33;;;;;;;36.30;32.55;;;4.40;95.70;;;;;;4975994;28;20203;-77
2020/12/06 02:53:59;;;;;;;37.92;34.22;;;4.50;95.00;;;;;;4976183;28;20207;-77
2020/12/06 02:56:26;;;;;;;40.55;35.60;;;4.60;94.60;;;;;;4976094;28;20223;-77
2020/12/06 02:58:53;;;;;;;41.90;35.65;;;4.60;94.30;;;;;;4976280;28;20207;-77
2020/12/06 03:01:19;;;;;;;40.20;36.15;;;4.50;94.70;;;;;;4976158;28;20703;-77
2020/12/06 03:03:46;;;;;;;40.53;36.03;;;4.40;95.40;;;;;;4976066;28;20213;-77
2020/12/06 03:06:13;;;;;;;52.30;36.88;;;4.40;95.00;;;;;;4976160;28;20587;-77
2020/12/06 03:08:39;;;;;;;39.15;35.05;;;4.30;95.20;;;;;;4976178;28;20318;-77
2020/12/06 03:11:07;;;;;;;40.38;36.25;;;4.30;95.50;;;;;;4976055;28;20200;-77
2020/12/06 03:13:34;;;;;;;38.00;34.15;;;4.40;94.90;;;;;;4976254;28;20201;-77
2020/12/06 03:16:01;;;;;;;39.78;35.72;;;4.40;94.60;;;;;;4975621;28;20223;-77
2020/12/06 03:18:27;;;;;;;39.53;35.28;;;4.40;94.60;;;;;;4976340;28;20194;-77
2020/12/06 03:20:54;;;;;;;40.42;36.42;;;4.40;94.50;;;;;;4976539;28;20192;-77
2020/12/06 03:23:20;;;;;;;37.25;33.55;;;4.50;94.10;;;;;;4975831;28;20199;-77
2020/12/06 03:25:47;;;;;;;37.75;33.67;;;4.40;93.40;;;;;;4975715;28;20722;-77
2020/12/06 03:28:13;;;;;;;35.97;32.45;;;4.40;93.60;;;;;;4975669;28;20219;-77
2020/12/06 03:30:40;;;;;;;37.83;34.00;;;4.30;93.50;;;;;;4975706;28;20564;-77
2020/12/06 03:33:07;;;;;;;38.58;34.67;;;4.30;94.00;;;;;;4975607;28;20251;-77
2020/12/06 03:35:33;;;;;;;38.55;34.50;;;4.20;94.00;;;;;;4975540;28;20202;-77
2020/12/06 03:38:00;;;;;;;37.60;33.75;;;4.30;94.30;;;;;;4975713;28;20195;-77
2020/12/06 03:40:26;;;;;;;40.25;35.33;;;4.40;93.90;;;;;;4975598;28;20202;-77
2020/12/06 03:42:53;;;;;;;39.50;34.83;;;4.50;93.30;;;;;;4975199;28;20188;-77
2020/12/06 03:45:20;;;;;;;40.45;36.15;;;4.50;93.30;;;;;;4975342;28;20203;-77
2020/12/06 03:47:48;;;;;;;40.53;36.13;;;4.40;93.40;;;;;;4975325;28;20223;-77
2020/12/06 03:50:14;;;;;;;40.88;35.35;;;4.40;94.00;;;;;;4975257;28;20203;-77
2020/12/06 03:52:41;;;;;;;42.33;36.63;;;4.30;93.90;;;;;;4975489;28;20576;-77
2020/12/06 03:55:07;;;;;;;44.40;36.47;;;4.20;94.20;;;;;;4975313;28;20207;-77
2020/12/06 03:57:33;;;;;;;40.65;36.13;;;4.20;94.20;;;;;;4975321;28;20216;-77
2020/12/06 04:00:00;;;;;;;40.55;36.13;;;4.20;94.40;;;;;;4975096;28;20686;-77
2020/12/06 04:02:26;;;;;;;43.78;36.83;;;4.20;95.00;;;;;;4975074;28;20191;-77
2020/12/06 04:04:53;;;;;;;47.00;38.10;;;4.20;94.70;;;;;;5008425;23;20227;-77
2020/12/06 04:07:20;;;;;;;47.67;39.95;;;4.10;94.80;;;;;;5032463;28;20247;-77
2020/12/06 04:09:46;;;;;;;48.90;37.33;;;4.10;95.30;;;;;;5033887;28;20247;-77
2020/12/06 04:12:13;;;;;;;47.00;37.83;;;4.00;95.10;;;;;;5033937;28;20235;-77
2020/12/06 04:14:39;;;;;;;54.75;39.15;;;4.00;95.10;;;;;;5033953;28;20239;-77
2020/12/06 04:17:05;;;;;;;66.65;40.42;;;4.10;94.90;;;;;;5047986;28;20215;-77
2020/12/06 04:19:32;;;;;;;51.00;38.33;;;4.10;94.50;;;;;;5053643;28;20198;-77
2020/12/06 04:21:59;;;;;;;52.03;38.90;;;3.90;94.90;;;;;;5053702;28;20203;-77
2020/12/06 04:24:25;;;;;;;53.70;40.05;;;3.90;95.50;;;;;;5052604;28;20204;-77
2020/12/06 04:26:51;;;;;;;56.90;41.40;;;4.00;95.20;;;;;;5048010;28;20511;-77
2020/12/06 04:29:18;;;;;;;59.00;42.17;;;3.90;95.50;;;;;;5053221;28;20199;-77
2020/12/06 04:31:44;;;;;;;52.53;38.00;;;4.10;94.80;;;;;;5053887;28;20196;-77
2020/12/06 04:34:11;;;;;;;63.50;43.67;;;3.90;95.50;;;;;;5053517;28;20675;-77
2020/12/06 04:36:37;;;;;;;59.88;41.95;;;3.90;95.60;;;;;;5051533;28;20317;-77
2020/12/06 04:39:04;;;;;;;60.00;41.17;;;4.00;95.40;;;;;;5053203;28;20220;-77
2020/12/06 04:41:31;;;;;;;53.88;41.95;;;4.10;95.10;;;;;;5053295;28;20564;-77
2020/12/06 04:43:57;;;;;;;62.97;44.67;;;3.90;95.40;;;;;;5053324;28;20196;-77
2020/12/06 04:46:26;;;;;;;64.07;40.55;;;3.70;95.70;;;;;;5052375;28;20221;-77
2020/12/06 04:49:03;;;;;;;59.63;42.38;;;3.60;97.40;;;;;;5053013;28;20563;-77
2020/12/06 04:51:34;;;;;;;57.13;41.20;;;3.60;97.00;;;;;;5053499;28;20649;-77
2020/12/06 04:54:02;;;;;;;460.83;82.82;;;3.50;97.40;;;;;;5053411;28;20211;-77
2020/12/06 04:56:30;;;;;;;58.15;39.75;;;3.60;97.50;;;;;;5051452;28;20226;-77
2020/12/06 04:58:58;;;;;;;62.70;41.28;;;3.60;97.70;;;;;;5033000;28;20197;-77
2020/12/06 05:01:29;;;;;;;55.85;38.30;;;3.70;97.10;;;;;;5032812;28;20194;-77
2020/12/06 05:03:59;;;;;;;56.78;40.33;;;3.60;97.10;;;;;;5032926;28;20213;-77
2020/12/06 05:06:29;;;;;;;67.32;42.40;;;3.60;96.60;;;;;;5032936;28;20213;-77
2020/12/06 05:08:57;;;;;;;59.83;42.55;;;3.50;97.00;;;;;;5052776;28;20314;-77
2020/12/06 05:11:24;;;;;;;81.10;43.90;;;3.50;97.50;;;;;;5047515;28;20185;-77
2020/12/06 05:13:52;;;;;;;85.30;42.80;;;3.50;97.40;;;;;;5032743;28;20207;-77
2020/12/06 05:16:20;;;;;;;67.30;43.25;;;3.50;97.90;;;;;;5032378;28;20706;-77
2020/12/06 05:18:47;;;;;;;65.32;44.05;;;3.60;97.80;;;;;;5032677;28;20222;-77
2020/12/06 05:21:13;;;;;;;62.80;43.60;;;3.70;97.50;;;;;;5035057;28;20672;-77
2020/12/06 05:23:41;;;;;;;76.65;45.70;;;3.70;97.30;;;;;;5052421;28;20199;-77
2020/12/06 05:26:09;;;;;;;66.93;42.65;;;3.60;96.70;;;;;;5052294;28;20224;-77
2020/12/06 05:28:36;;;;;;;66.25;43.65;;;3.50;96.90;;;;;;5052419;28;20216;-77
2020/12/06 05:31:03;;;;;;;62.38;44.25;;;3.40;97.40;;;;;;5038226;28;20197;-77
2020/12/06 05:33:30;;;;;;;63.03;42.03;;;3.50;97.90;;;;;;5052645;28;20202;-77
2020/12/06 05:36:00;;;;;;;62.58;44.35;;;3.60;98.20;;;;;;5051939;28;20728;-77
2020/12/06 05:38:26;;;;;;;64.45;43.53;;;3.70;97.50;;;;;;5052487;28;20188;-77
2020/12/06 05:40:56;;;;;;;58.85;40.90;;;3.70;96.80;;;;;;5052403;28;20203;-77
2020/12/06 05:43:27;;;;;;;54.47;40.25;;;3.80;97.10;;;;;;5051117;28;20196;-77
2020/12/06 05:46:05;;;;;;;50.13;38.63;;;3.80;95.60;;;;;;5037650;28;20213;-77
2020/12/06 05:48:32;;;;;;;53.90;36.65;;;3.70;94.80;;;;;;5032562;28;20235;-77
2020/12/06 05:50:59;;;;;;;51.67;39.03;;;3.60;95.30;;;;;;5032416;28;20716;-77
2020/12/06 05:53:27;;;;;;;52.35;41.03;;;3.70;95.00;;;;;;5033714;28;20227;-77
2020/12/06 05:55:57;;;;;;;50.45;38.63;;;3.70;94.40;;;;;;5051824;28;20578;-77
2020/12/06 05:58:25;;;;;;;55.55;40.90;;;3.70;94.30;;;;;;5044971;28;20193;-77
2020/12/06 06:00:51;;;;;;;52.85;39.60;;;3.70;94.30;;;;;;5051126;28;20192;-77
2020/12/06 06:03:27;;;;;;;53.35;41.47;;;3.70;94.70;;;;;;5052401;28;20612;-77
2020/12/06 06:05:54;;;;;;;45.17;36.75;;;3.70;94.70;;;;;;5037420;23;20312;-77
2020/12/06 06:08:25;;;;;;;47.67;37.63;;;3.70;94.00;;;;;;5017645;28;20209;-77
2020/12/06 06:11:17;;;;;;;47.63;39.08;;;3.50;94.60;;;;;;5032171;28;20197;-77
2020/12/06 06:13:51;;;;;;;46.42;37.55;;;3.60;94.80;;;;;;5032521;28;20201;-77
2020/12/06 06:16:20;;;;;;;191.02;50.67;;;3.70;94.70;;;;;;5032141;28;20222;-77
2020/12/06 06:18:48;;;;;;;49.10;38.70;;;3.80;95.10;;;;;;5030609;28;20579;-77
2020/12/06 06:21:15;;;;;;;50.80;39.60;;;3.90;94.50;;;;;;5032197;28;20288;-77
2020/12/06 06:23:43;;;;;;;46.88;37.88;;;4.00;94.50;;;;;;5032013;28;20197;-77
2020/12/06 06:26:11;;;;;;;47.75;38.50;;;4.00;93.80;;;;;;5031941;28;20253;-77
2020/12/06 06:28:38;;;;;;;49.42;38.58;;;4.00;93.60;;;;;;5031824;28;20221;-77
2020/12/06 06:31:05;;;;;;;47.90;38.53;;;4.00;93.50;;;;;;5025964;28;20567;-77
2020/12/06 06:33:33;;;;;;;49.60;38.75;;;4.00;93.60;;;;;;5035572;28;20200;-77
2020/12/06 06:36:01;;;;;;;58.53;41.42;;;4.00;93.50;;;;;;5035495;28;20224;-77
2020/12/06 06:38:27;;;;;;;115.35;44.70;;;4.00;93.60;;;;;;5035591;28;20255;-77
2020/12/06 06:40:55;;;;;;;50.22;39.30;;;4.00;94.30;;;;;;5029325;28;20274;-77
2020/12/06 06:43:27;;;;;;;93.40;41.67;;;4.00;94.70;;;;;;5015791;28;20228;-77
2020/12/06 06:45:55;;;;;;;59.33;41.15;;;4.10;94.90;;;;;;5015638;28;20633;-77
2020/12/06 06:48:22;;;;;;;53.03;38.33;;;4.20;94.70;;;;;;5015563;28;20221;-77
2020/12/06 06:50:48;;;;;;;51.10;41.65;;;4.20;94.50;;;;;;5016829;28;20192;-77
2020/12/06 06:53:16;;;;;;;50.75;38.83;;;4.20;94.30;;;;;;5015674;28;20186;-77
2020/12/06 06:55:51;;;;;;;45.78;37.08;;;4.20;94.30;;;;;;5015486;28;20309;-77
2020/12/06 06:58:18;;;;;;;76.00;39.67;;;4.20;94.20;;;;;;5017456;28;20280;-77
2020/12/06 07:00:45;;;;;;;1942.50;325.85;;;4.30;94.00;;;;;;5035421;28;20204;-77
2020/12/06 07:03:13;;;;;;;278.73;55.03;;;4.20;96.00;;;;;;5035143;28;20201;-77
2020/12/06 07:05:39;;;;;;;52.85;37.95;;;4.30;95.90;;;;;;5017482;28;20685;-77
2020/12/06 07:08:11;;;;;;;569.72;102.07;;;4.30;96.70;;;;;;5015191;28;20304;-77
2020/12/06 07:10:40;;;;;;;1999.90;376.65;;;4.40;96.30;;;;;;5015294;28;20285;-77
2020/12/06 07:13:07;;;;;;;76.90;39.38;;;4.40;98.20;;;;;;5015223;28;20202;-77
2020/12/06 07:15:34;;;;;;;54.25;38.83;;;4.40;97.80;;;;;;5030167;28;20227;-77
2020/12/06 07:18:01;;;;;;;56.60;37.15;;;4.50;96.80;;;;;;5034958;28;20201;-77
2020/12/06 07:20:29;;;;;;;52.53;37.38;;;4.40;96.30;;;;;;5016197;28;20643;-77
2020/12/06 07:22:56;;;;;;;52.53;38.70;;;4.30;96.20;;;;;;5015042;28;20197;-77
2020/12/06 07:25:23;;;;;;;52.63;38.30;;;4.30;96.30;;;;;;5028077;28;20304;-77
2020/12/06 07:27:51;;;;;;;46.65;35.38;;;4.30;96.00;;;;;;5034663;28;20228;-77
2020/12/06 07:30:19;;;;;;;201.73;53.75;;;4.40;96.70;;;;;;5034443;28;20194;-77
2020/12/06 07:32:46;;;;;;;47.78;35.25;;;4.50;96.30;;;;;;5034821;28;20288;-77
2020/12/06 07:35:15;;;;;;;92.38;40.47;;;4.50;96.80;;;;;;5023344;28;20192;-77
2020/12/06 07:37:41;;;;;;;50.00;34.78;;;4.60;96.10;;;;;;5014181;28;20721;-77
2020/12/06 07:40:09;;;;;;;55.78;38.28;;;4.50;96.20;;;;;;5014707;28;20191;-77
2020/12/06 07:42:36;;;;;;;53.40;37.30;;;4.40;96.30;;;;;;5014644;28;20209;-77
2020/12/06 07:45:05;;;;;;;44.58;36.70;;;4.50;96.10;;;;;;5022168;28;20198;-77
2020/12/06 07:47:32;;;;;;;45.22;36.15;;;4.60;95.80;;;;;;5014492;28;20222;-77
2020/12/06 07:50:00;;;;;;;545.53;93.53;;;4.70;94.90;;;;;;5014873;28;20198;-77
2020/12/06 07:52:28;;;;;;;323.25;61.05;;;4.60;95.50;;;;;;5014945;28;20289;-77
2020/12/06 07:54:56;;;;;;;261.55;56.65;;;4.60;98.40;;;;;;5015184;28;20209;-77
2020/12/06 07:57:36;;;;;;;67.35;36.67;;;4.60;98.20;;;;;;5034193;28;20222;-77
2020/12/06 08:00:06;;;;;;;381.60;75.32;;;4.50;98.10;;;;;;5034307;28;20791;-77
2020/12/06 08:02:35;;;;;;;51.80;36.15;;;4.60;99.90;;;;;;5033999;28;20205;-77
2020/12/06 08:05:03;;;;;;;1494.53;230.43;;;4.60;99.20;;;;;;5032511;28;20206;-77
2020/12/06 08:07:38;;;;;;;173.88;43.95;;;4.70;99.00;;;;;;4998513;23;20234;-77
2020/12/06 08:10:05;;;;;;;52.28;34.50;;;4.60;98.60;;;;;;4975015;28;20204;-77
2020/12/06 08:12:34;;;;;;;53.15;35.45;;;4.70;98.90;;;;;;4974778;28;20201;-77
2020/12/06 08:15:01;;;;;;;50.15;34.05;;;4.70;98.00;;;;;;4974650;28;20779;-77
2020/12/06 08:17:42;;;;;;;51.67;36.58;;;4.60;97.40;;;;;;4974579;28;20209;-77
2020/12/06 08:20:10;;;;;;;44.13;34.65;;;4.70;97.30;;;;;;4975070;28;20227;-77
2020/12/06 08:22:48;;;;;;;176.65;43.83;;;4.70;96.70;;;;;;4974932;28;20199;-77
2020/12/06 08:25:14;;;;;;;46.78;32.35;;;4.80;99.70;;;;;;4974331;28;20196;-77
2020/12/06 08:27:43;;;;;;;337.95;63.60;;;4.80;99.90;;;;;;4974480;28;20221;-77
2020/12/06 08:30:14;;;;;;;44.22;31.95;;;4.80;99.10;;;;;;4974858;28;20201;-77
2020/12/06 08:32:49;;;;;;;40.88;30.90;;;4.70;97.90;;;;;;4975329;28;20326;-77
2020/12/06 08:35:15;;;;;;;45.08;31.20;;;4.80;97.90;;;;;;4974406;28;20206;-77
2020/12/06 08:37:43;;;;;;;36.72;31.02;;;4.80;97.50;;;;;;4974394;28;20226;-77
2020/12/06 08:40:09;;;;;;;34.50;30.27;;;4.90;96.70;;;;;;4974470;28;20294;-77
2020/12/06 08:42:36;;;;;;;57.22;31.38;;;4.80;96.50;;;;;;4974705;28;20211;-77
2020/12/06 08:45:03;;;;;;;36.10;28.65;;;4.80;97.20;;;;;;4974248;28;20197;-77
2020/12/06 08:47:42;;;;;;;37.97;29.90;;;4.80;97.70;;;;;;4974109;28;20230;-77
2020/12/06 08:50:11;;;;;;;386.05;62.83;;;4.80;98.40;;;;;;4966463;28;20205;-77
2020/12/06 08:52:37;;;;;;;1999.90;316.58;;;5.00;97.90;;;;;;4974269;28;20192;-77
2020/12/06 08:55:26;;;;;;;44.20;30.75;;;5.00;98.20;;;;;;4975034;28;20663;-77
2020/12/06 08:57:53;;;;;;;58.90;31.38;;;5.00;98.80;;;;;;4974699;28;20211;-77
2020/12/06 09:00:20;;;;;;;169.55;41.92;;;5.00;98.40;;;;;;4974472;28;20244;-77
2020/12/06 09:02:47;;;;;;;36.92;28.77;;;5.10;98.10;;;;;;4974062;28;20224;-77
2020/12/06 09:05:13;;;;;;;34.40;29.10;;;5.20;97.90;;;;;;4974400;28;20199;-77
2020/12/06 09:07:40;;;;;;;31.20;26.40;;;5.30;97.10;;;;;;4974083;28;20232;-77
2020/12/06 09:10:06;;;;;;;32.53;27.48;;;5.40;96.20;;;;;;4974791;28;20207;-77
2020/12/06 09:12:36;;;;;;;27.80;25.10;;;5.40;95.60;;;;;;4974311;28;20198;-77
2020/12/06 09:15:03;;;;;;;31.17;27.83;;;5.50;94.20;;;;;;4974858;28;20231;-77
2020/12/06 09:17:29;;;;;;;462.50;72.50;;;5.40;92.60;;;;;;4974600;28;20215;-77
2020/12/06 09:19:56;;;;;;;32.60;29.13;;;5.40;92.80;;;;;;4974391;28;20662;-77
2020/12/06 09:22:23;;;;;;;1999.90;315.73;;;5.50;93.90;;;;;;4973815;28;20738;-77
2020/12/06 09:24:49;;;;;;;37.28;27.30;;;5.60;95.80;;;;;;4973804;28;20534;-77
2020/12/06 09:27:15;;;;;;;33.33;28.80;;;5.60;96.40;;;;;;4973745;28;20313;-77
2020/12/06 09:29:42;;;;;;;30.08;26.90;;;5.80;95.30;;;;;;4973876;28;20630;-77
2020/12/06 09:32:08;;;;;;;29.55;26.55;;;5.80;93.50;;;;;;4973780;28;20787;-77
2020/12/06 09:34:34;;;;;;;31.55;28.20;;;5.80;93.30;;;;;;4973979;28;20187;-77
2020/12/06 09:37:02;;;;;;;29.65;26.35;;;5.80;92.80;;;;;;4973691;28;20242;-77
2020/12/06 09:39:28;;;;;;;28.60;26.00;;;5.80;93.10;;;;;;4974050;28;20202;-77
2020/12/06 09:41:54;;;;;;;75.63;27.08;;;5.90;92.90;;;;;;4973783;28;20195;-77
2020/12/06 09:44:21;;;;;;;24.70;22.25;;;5.90;93.20;;;;;;4973726;28;20199;-77
2020/12/06 09:46:47;;;;;;;26.23;23.70;;;5.90;93.20;;;;;;4973754;28;20213;-77
2020/12/06 09:49:13;;;;;;;328.95;58.45;;;5.80;94.40;;;;;;4973587;28;20233;-77
2020/12/06 09:51:41;;;;;;;303.85;48.63;;;5.70;94.10;;;;;;4973832;28;20201;-77
2020/12/06 09:54:10;;;;;;;28.48;24.35;;;5.80;94.40;;;;;;4973628;28;20556;-77
2020/12/06 09:56:36;;;;;;;27.13;24.42;;;5.90;92.80;;;;;;4973702;28;20219;-77
2020/12/06 09:59:03;;;;;;;26.30;23.25;;;5.80;93.10;;;;;;4973752;28;20202;-77
2020/12/06 10:01:29;;;;;;;27.73;25.10;;;5.80;92.80;;;;;;4974586;28;20193;-77
2020/12/06 10:03:55;;;;;;;27.27;24.90;;;5.90;92.00;;;;;;4977757;28;20209;-77
2020/12/06 10:06:23;;;;;;;26.30;23.80;;;6.00;90.80;;;;;;4977238;28;20223;-77
2020/12/06 10:08:49;;;;;;;31.25;28.40;;;5.90;90.30;;;;;;4977441;28;20771;-77
2020/12/06 10:11:17;;;;;;;26.58;24.27;;;5.90;92.50;;;;;;5013731;23;20220;-77
2020/12/06 10:13:43;;;;;;;24.33;22.38;;;5.80;92.20;;;;;;5017944;28;20205;-77
2020/12/06 10:16:10;;;;;;;27.05;24.55;;;5.80;90.50;;;;;;5040278;28;20306;-77
2020/12/06 10:18:36;;;;;;;25.08;22.83;;;5.70;90.40;;;;;;5055714;28;20184;-77
2020/12/06 10:21:02;;;;;;;26.25;24.05;;;5.70;90.40;;;;;;5043518;28;20558;-77
2020/12/06 10:23:29;;;;;;;27.63;25.17;;;5.70;90.10;;;;;;5035788;28;20301;-77
2020/12/06 10:25:55;;;;;;;24.40;22.30;;;5.70;90.10;;;;;;5046518;28;20218;-77
2020/12/06 10:28:23;;;;;;;24.80;22.80;;;5.70;91.50;;;;;;5055381;28;20250;-77
2020/12/06 10:30:49;;;;;;;25.25;23.05;;;5.80;91.60;;;;;;5055797;28;20220;-77
2020/12/06 10:33:15;;;;;;;28.48;25.92;;;5.90;91.40;;;;;;5055706;28;20198;-77
2020/12/06 10:35:44;;;;;;;24.80;22.67;;;5.90;91.10;;;;;;5046849;28;20193;-77
2020/12/06 10:38:10;;;;;;;24.90;22.90;;;6.00;90.80;;;;;;5035736;28;20196;-77
2020/12/06 10:40:37;;;;;;;24.83;22.55;;;6.10;89.70;;;;;;5035797;28;20200;-77
2020/12/06 10:43:03;;;;;;;27.35;24.92;;;6.10;89.50;;;;;;5035614;28;20199;-77
2020/12/06 10:45:30;;;;;;;25.25;23.13;;;5.90;89.80;;;;;;5041500;28;20189;-78
2020/12/06 10:47:56;;;;;;;24.00;21.88;;;5.80;90.40;;;;;;5055556;28;20222;-77
2020/12/06 10:50:23;;;;;;;24.20;22.25;;;5.80;91.00;;;;;;5055678;28;20196;-77
2020/12/06 10:52:49;;;;;;;23.92;21.85;;;5.90;90.70;;;;;;5055463;28;20231;-77
2020/12/06 10:55:15;;;;;;;23.55;21.55;;;5.90;90.80;;;;;;5051040;28;20193;-77
2020/12/06 10:57:42;;;;;;;22.33;20.70;;;5.90;90.70;;;;;;5045150;28;20573;-77
2020/12/06 11:00:08;;;;;;;22.25;20.35;;;5.90;91.10;;;;;;5049634;28;20198;-77
2020/12/06 11:02:35;;;;;;;24.20;22.25;;;5.80;93.30;;;;;;5044636;28;20189;-77
2020/12/06 11:05:01;;;;;;;27.95;25.73;;;5.80;92.60;;;;;;5055119;28;20199;-77
2020/12/06 11:07:28;;;;;;;22.50;20.70;;;5.90;92.10;;;;;;5054834;28;20223;-77
2020/12/06 11:09:54;;;;;;;23.02;21.15;;;5.90;90.90;;;;;;5055086;28;20198;-77
2020/12/06 11:12:20;;;;;;;34.03;31.02;;;5.90;90.50;;;;;;5036625;28;20203;-77
2020/12/06 11:14:47;;;;;;;31.10;28.40;;;5.90;90.70;;;;;;5034604;28;20578;-77
2020/12/06 11:17:13;;;;;;;28.55;26.13;;;5.90;90.90;;;;;;5034850;28;20217;-77
2020/12/06 11:19:40;;;;;;;31.17;28.38;;;5.80;91.40;;;;;;5043603;28;20195;-77
2020/12/06 11:22:07;;;;;;;27.73;25.27;;;5.70;91.80;;;;;;5054884;28;20203;-77
2020/12/06 11:24:35;;;;;;;22.17;20.35;;;5.80;92.30;;;;;;5054592;28;20201;-77
2020/12/06 11:27:01;;;;;;;21.17;19.55;;;5.80;92.10;;;;;;5042358;28;20220;-77
2020/12/06 11:29:28;;;;;;;23.50;21.80;;;5.90;91.60;;;;;;5038600;28;20209;-77
2020/12/06 11:31:54;;;;;;;21.33;19.83;;;5.90;91.60;;;;;;5054669;28;20202;-77
2020/12/06 11:34:21;;;;;;;20.55;19.15;;;5.90;91.50;;;;;;5054446;28;20210;-77
2020/12/06 11:36:49;;;;;;;20.40;18.95;;;5.80;91.80;;;;;;5054364;28;20770;-77
2020/12/06 11:39:15;;;;;;;21.80;20.35;;;5.70;92.10;;;;;;5052955;28;20320;-77
2020/12/06 11:41:42;;;;;;;54.83;24.10;;;5.80;92.50;;;;;;5034476;28;20259;-77
2020/12/06 11:44:08;;;;;;;19.88;18.63;;;5.90;92.20;;;;;;5034536;28;20205;-77
2020/12/06 11:46:35;;;;;;;22.67;21.00;;;5.90;94.20;;;;;;5034332;28;20226;-77
2020/12/06 11:49:01;;;;;;;21.58;20.23;;;5.90;94.10;;;;;;5034355;28;20233;-77
2020/12/06 11:51:28;;;;;;;20.77;19.40;;;6.00;93.60;;;;;;5056327;28;20280;-77
2020/12/06 11:53:55;;;;;;;21.08;19.55;;;6.10;93.00;;;;;;5057247;28;20199;-77
2020/12/06 11:56:22;;;;;;;20.42;19.08;;;6.20;92.40;;;;;;5054285;28;20227;-77
2020/12/06 11:58:49;;;;;;;19.70;18.50;;;6.30;92.10;;;;;;5054119;28;20200;-77
2020/12/06 12:01:16;;;;;;;38.65;20.45;;;6.30;91.70;;;;;;5037571;28;20195;-77
2020/12/06 12:03:42;;;;;;;1999.90;288.08;;;6.30;91.30;;;;;;5034393;28;20211;-77
2020/12/06 12:06:09;;;;;;;695.72;92.22;;;6.30;91.80;;;;;;5033834;28;20217;-77
2020/12/06 12:08:35;;;;;;;19.63;18.42;;;6.30;94.40;;;;;;5033963;28;20231;-77
2020/12/06 12:11:03;;;;;;;20.13;18.92;;;6.30;94.30;;;;;;5034118;28;20201;-77
2020/12/06 12:13:30;;;;;;;20.92;19.50;;;6.20;93.30;;;;;;5035997;28;20261;-77
2020/12/06 12:15:56;;;;;;;22.13;20.38;;;6.20;93.20;;;;;;5033762;28;20221;-77
2020/12/06 12:18:22;;;;;;;22.33;20.70;;;6.30;93.10;;;;;;5033875;28;20665;-77
2020/12/06 12:20:49;;;;;;;23.00;21.40;;;6.40;92.20;;;;;;5043972;28;20284;-77
2020/12/06 12:23:16;;;;;;;22.88;21.20;;;6.60;91.00;;;;;;5053507;28;20283;-77
2020/12/06 12:25:44;;;;;;;20.05;18.77;;;6.60;92.10;;;;;;5052145;28;20650;-77
2020/12/06 12:28:11;;;;;;;19.40;18.30;;;6.60;92.60;;;;;;5053437;28;20217;-77
2020/12/06 12:30:38;;;;;;;22.20;20.70;;;6.50;89.00;;;;;;5053500;28;20673;-77
2020/12/06 12:33:04;;;;;;;20.13;19.00;;;6.50;89.20;;;;;;5033859;28;20598;-77
2020/12/06 12:35:30;;;;;;;19.13;18.08;;;6.50;89.10;;;;;;5036432;28;20195;-77